sensor_id;sensor_type;location;lat;lon;timestamp;pressure;altitude;pressure_sealevel;temperature;humidity
19526;BME280;9907;42.676;26.348;2023-05-10T00:01:54;99424.25;;;9.55;71.88
19526;BME280;9907;42.676;26.348;2023-05-10T00:04:20;99417.09;;;9.56;71.30
19526;BME280;9907;42.676;26.348;2023-05-10T00:06:46;99415.63;;;9.63;71.76
19526;BME280;9907;42.676;26.348;2023-05-10T00:09:12;99415.13;;;9.58;73.48
19526;BME280;9907;42.676;26.348;2023-05-10T00:11:37;99416.75;;;9.49;75.19
19526;BME280;9907;42.676;26.348;2023-05-10T00:14:03;99411.41;;;9.38;75.46
19526;BME280;9907;42.676;26.348;2023-05-10T00:16:28;99411.88;;;9.43;77.78
19526;BME280;9907;42.676;26.348;2023-05-10T00:18:54;99414.19;;;9.37;79.32
19526;BME280;9907;42.676;26.348;2023-05-10T00:21:19;99407.13;;;9.24;80.19
19526;BME280;9907;42.676;26.348;2023-05-10T00:23:45;99413.31;;;9.14;81.39
19526;BME280;9907;42.676;26.348;2023-05-10T00:26:10;99413.31;;;9.14;82.32
19526;BME280;9907;42.676;26.348;2023-05-10T00:28:36;99410.53;;;9.15;82.62
19526;BME280;9907;42.676;26.348;2023-05-10T00:31:01;99415.97;;;9.14;83.42
19526;BME280;9907;42.676;26.348;2023-05-10T00:33:27;99403.84;;;9.10;84.01
19526;BME280;9907;42.676;26.348;2023-05-10T00:35:52;99410.97;;;8.98;84.73
19526;BME280;9907;42.676;26.348;2023-05-10T00:38:18;99414.75;;;8.96;85.61
19526;BME280;9907;42.676;26.348;2023-05-10T00:40:43;99407.94;;;8.92;85.84
19526;BME280;9907;42.676;26.348;2023-05-10T00:43:09;99406.03;;;8.94;85.83
19526;BME280;9907;42.676;26.348;2023-05-10T00:45:35;99410.84;;;8.89;85.41
19526;BME280;9907;42.676;26.348;2023-05-10T00:48:03;99408.44;;;8.86;84.39
19526;BME280;9907;42.676;26.348;2023-05-10T00:50:30;99403.81;;;8.88;83.80
19526;BME280;9907;42.676;26.348;2023-05-10T00:52:56;99404.06;;;8.85;84.29
19526;BME280;9907;42.676;26.348;2023-05-10T00:55:23;99403.78;;;8.76;84.57
19526;BME280;9907;42.676;26.348;2023-05-10T00:57:48;99404.41;;;8.80;84.52
19526;BME280;9907;42.676;26.348;2023-05-10T01:00:14;99398.50;;;8.88;84.62
19526;BME280;9907;42.676;26.348;2023-05-10T01:02:46;99400.16;;;8.77;84.97
19526;BME280;9907;42.676;26.348;2023-05-10T01:05:12;99400.16;;;8.77;85.20
19526;BME280;9907;42.676;26.348;2023-05-10T01:07:39;99399.03;;;8.69;83.95
19526;BME280;9907;42.676;26.348;2023-05-10T01:10:06;99399.66;;;8.72;84.37
19526;BME280;9907;42.676;26.348;2023-05-10T01:12:33;99401.31;;;8.62;85.48
19526;BME280;9907;42.676;26.348;2023-05-10T01:15:00;99401.09;;;8.65;84.78
19526;BME280;9907;42.676;26.348;2023-05-10T01:17:26;99402.53;;;8.58;83.45
19526;BME280;9907;42.676;26.348;2023-05-10T01:19:52;99403.53;;;8.68;84.65
19526;BME280;9907;42.676;26.348;2023-05-10T01:38:42;99391.16;;;8.56;83.38
19526;BME280;9907;42.676;26.348;2023-05-10T01:46:48;99375.00;;;8.47;83.82
19526;BME280;9907;42.676;26.348;2023-05-10T01:49:23;99384.81;;;8.46;84.43
19526;BME280;9907;42.676;26.348;2023-05-10T01:51:52;99389.19;;;8.47;83.38
19526;BME280;9907;42.676;26.348;2023-05-10T01:54:21;99391.84;;;8.23;85.07
19526;BME280;9907;42.676;26.348;2023-05-10T01:56:55;99396.25;;;8.12;84.92
19526;BME280;9907;42.676;26.348;2023-05-10T01:59:28;99392.22;;;8.06;85.12
19526;BME280;9907;42.676;26.348;2023-05-10T02:01:57;99391.66;;;8.14;85.59
19526;BME280;9907;42.676;26.348;2023-05-10T02:04:24;99393.25;;;8.16;85.52
19526;BME280;9907;42.676;26.348;2023-05-10T02:06:51;99389.00;;;8.14;85.45
19526;BME280;9907;42.676;26.348;2023-05-10T02:09:18;99387.44;;;8.11;85.94
19526;BME280;9907;42.676;26.348;2023-05-10T02:11:47;99383.81;;;8.12;85.35
19526;BME280;9907;42.676;26.348;2023-05-10T02:14:15;99388.75;;;8.17;85.12
19526;BME280;9907;42.676;26.348;2023-05-10T02:16:42;99388.66;;;8.18;84.79
19526;BME280;9907;42.676;26.348;2023-05-10T02:19:10;99393.47;;;8.13;84.35
19526;BME280;9907;42.676;26.348;2023-05-10T02:21:39;99388.66;;;8.18;82.82
19526;BME280;9907;42.676;26.348;2023-05-10T02:24:05;99393.25;;;8.16;84.00
19526;BME280;9907;42.676;26.348;2023-05-10T02:26:33;99395.31;;;8.13;84.47
19526;BME280;9907;42.676;26.348;2023-05-10T02:29:01;99386.56;;;8.11;84.52
19526;BME280;9907;42.676;26.348;2023-05-10T02:31:32;99388.22;;;8.01;86.46
19526;BME280;9907;42.676;26.348;2023-05-10T02:33:59;99382.03;;;8.00;85.12
19526;BME280;9907;42.676;26.348;2023-05-10T02:36:27;99386.06;;;8.06;85.40
19526;BME280;9907;42.676;26.348;2023-05-10T02:38:53;99386.91;;;8.06;85.79
19526;BME280;9907;42.676;26.348;2023-05-10T02:41:20;99384.16;;;8.08;86.16
19526;BME280;9907;42.676;26.348;2023-05-10T02:43:50;99379.00;;;7.94;87.51
19526;BME280;9907;42.676;26.348;2023-05-10T02:46:17;99378.00;;;7.95;86.72
19526;BME280;9907;42.676;26.348;2023-05-10T02:48:42;99375.03;;;7.99;87.29
19526;BME280;9907;42.676;26.348;2023-05-10T02:51:09;99381.03;;;7.90;87.26
19526;BME280;9907;42.676;26.348;2023-05-10T02:53:38;99383.00;;;7.75;88.25
19526;BME280;9907;42.676;26.348;2023-05-10T02:56:12;99378.69;;;7.86;86.58
19526;BME280;9907;42.676;26.348;2023-05-10T02:58:39;99384.03;;;7.86;87.73
19526;BME280;9907;42.676;26.348;2023-05-10T03:01:05;99378.19;;;7.80;85.86
19526;BME280;9907;42.676;26.348;2023-05-10T03:03:32;99381.75;;;7.92;86.50
19526;BME280;9907;42.676;26.348;2023-05-10T03:05:58;99382.50;;;7.94;86.23
19526;BME280;9907;42.676;26.348;2023-05-10T03:08:24;99384.25;;;7.82;87.63
19526;BME280;9907;42.676;26.348;2023-05-10T03:11:15;99390.69;;;7.91;86.16
19526;BME280;9907;42.676;26.348;2023-05-10T03:16:16;99395.06;;;7.92;86.52
19526;BME280;9907;42.676;26.348;2023-05-10T03:19:06;99395.91;;;7.93;86.06
19526;BME280;9907;42.676;26.348;2023-05-10T03:21:32;99395.06;;;7.92;86.14
19526;BME280;9907;42.676;26.348;2023-05-10T03:24:06;99387.94;;;7.93;86.27
19526;BME280;9907;42.676;26.348;2023-05-10T03:26:33;99384.81;;;7.99;86.11
19526;BME280;9907;42.676;26.348;2023-05-10T03:28:59;99396.53;;;7.96;86.35
19526;BME280;9907;42.676;26.348;2023-05-10T03:31:25;99380.56;;;7.96;86.05
19526;BME280;9907;42.676;26.348;2023-05-10T03:33:51;99391.13;;;7.98;85.02
19526;BME280;9907;42.676;26.348;2023-05-10T03:36:18;99386.91;;;8.06;85.24
19526;BME280;9907;42.676;26.348;2023-05-10T03:38:44;99390.72;;;8.15;85.13
19526;BME280;9907;42.676;26.348;2023-05-10T03:41:09;99398.69;;;8.15;86.27
19526;BME280;9907;42.676;26.348;2023-05-10T03:43:35;99399.16;;;8.09;87.29
19526;BME280;9907;42.676;26.348;2023-05-10T03:46:04;99402.19;;;8.15;86.87
19526;BME280;9907;42.676;26.348;2023-05-10T03:48:32;99405.59;;;8.17;84.34
19526;BME280;9907;42.676;26.348;2023-05-10T03:50:57;99409.19;;;8.29;85.14
19526;BME280;9907;42.676;26.348;2023-05-10T03:53:23;99404.03;;;8.39;83.85
19526;BME280;9907;42.676;26.348;2023-05-10T03:55:48;99400.06;;;8.44;83.08
19526;BME280;9907;42.676;26.348;2023-05-10T03:58:14;99394.25;;;8.50;83.35
19526;BME280;9907;42.676;26.348;2023-05-10T04:00:39;99406.38;;;8.54;82.18
19526;BME280;9907;42.676;26.348;2023-05-10T04:03:11;99403.47;;;8.57;83.49
19526;BME280;9907;42.676;26.348;2023-05-10T04:05:36;99398.16;;;8.57;82.55
19526;BME280;9907;42.676;26.348;2023-05-10T04:08:02;99404.22;;;8.59;82.58
19526;BME280;9907;42.676;26.348;2023-05-10T04:10:28;99403.03;;;8.63;84.28
19526;BME280;9907;42.676;26.348;2023-05-10T04:12:53;99393.63;;;8.70;82.89
19526;BME280;9907;42.676;26.348;2023-05-10T04:15:19;99400.88;;;8.79;81.83
19526;BME280;9907;42.676;26.348;2023-05-10T04:17:45;99400.28;;;8.87;81.37
19526;BME280;9907;42.676;26.348;2023-05-10T04:20:11;99402.50;;;8.93;82.89
19526;BME280;9907;42.676;26.348;2023-05-10T04:22:37;99404.84;;;9.09;82.93
19526;BME280;9907;42.676;26.348;2023-05-10T04:25:02;99409.09;;;9.34;82.83
19526;BME280;9907;42.676;26.348;2023-05-10T04:27:28;99407.38;;;9.77;82.72
19526;BME280;9907;42.676;26.348;2023-05-10T04:29:53;99406.47;;;9.99;80.20
19526;BME280;9907;42.676;26.348;2023-05-10T04:32:19;99398.69;;;10.07;79.19
19526;BME280;9907;42.676;26.348;2023-05-10T04:34:45;99401.06;;;10.32;79.98
19526;BME280;9907;42.676;26.348;2023-05-10T04:37:10;99401.94;;;10.53;78.51
19526;BME280;9907;42.676;26.348;2023-05-10T04:39:36;99407.44;;;10.72;75.92
19526;BME280;9907;42.676;26.348;2023-05-10T04:42:03;99406.75;;;10.91;76.38
19526;BME280;9907;42.676;26.348;2023-05-10T04:44:28;99400.81;;;11.08;74.42
19526;BME280;9907;42.676;26.348;2023-05-10T04:46:55;99407.25;;;11.27;73.06
19526;BME280;9907;42.676;26.348;2023-05-10T04:49:20;99403.56;;;11.58;72.68
19526;BME280;9907;42.676;26.348;2023-05-10T04:51:46;99408.75;;;11.80;71.40
19526;BME280;9907;42.676;26.348;2023-05-10T04:54:11;99410.94;;;12.05;70.37
19526;BME280;9907;42.676;26.348;2023-05-10T04:56:37;99406.22;;;12.66;65.90
19526;BME280;9907;42.676;26.348;2023-05-10T04:59:02;99403.34;;;12.87;62.96
19526;BME280;9907;42.676;26.348;2023-05-10T05:01:28;99406.44;;;13.02;60.51
19526;BME280;9907;42.676;26.348;2023-05-10T05:03:53;99414.31;;;13.32;61.13
19526;BME280;9907;42.676;26.348;2023-05-10T05:06:19;99409.97;;;13.22;60.14
19526;BME280;9907;42.676;26.348;2023-05-10T05:08:46;99415.72;;;13.36;60.78
19526;BME280;9907;42.676;26.348;2023-05-10T05:11:11;99411.28;;;13.54;59.34
19526;BME280;9907;42.676;26.348;2023-05-10T05:13:37;99408.88;;;13.51;59.08
19526;BME280;9907;42.676;26.348;2023-05-10T05:16:02;99410.78;;;13.69;57.75
19526;BME280;9907;42.676;26.348;2023-05-10T05:18:28;99411.38;;;13.62;58.22
19526;BME280;9907;42.676;26.348;2023-05-10T05:20:54;99414.81;;;13.45;58.94
19526;BME280;9907;42.676;26.348;2023-05-10T05:23:19;99402.97;;;13.48;58.12
19526;BME280;9907;42.676;26.348;2023-05-10T05:25:46;99412.75;;;13.39;59.19
19526;BME280;9907;42.676;26.348;2023-05-10T05:28:11;99401.72;;;13.42;60.63
19526;BME280;9907;42.676;26.348;2023-05-10T05:30:37;99402.53;;;13.52;58.02
19526;BME280;9907;42.676;26.348;2023-05-10T05:33:03;99407.22;;;13.78;58.58
19526;BME280;9907;42.676;26.348;2023-05-10T05:35:28;99401.06;;;13.95;58.35
19526;BME280;9907;42.676;26.348;2023-05-10T05:37:54;99410.41;;;13.91;58.13
19526;BME280;9907;42.676;26.348;2023-05-10T05:40:19;99404.38;;;14.06;57.35
19526;BME280;9907;42.676;26.348;2023-05-10T05:42:45;99406.31;;;14.14;58.08
19526;BME280;9907;42.676;26.348;2023-05-10T05:45:11;99399.75;;;14.26;58.69
19526;BME280;9907;42.676;26.348;2023-05-10T05:47:39;99403.75;;;14.57;57.35
19526;BME280;9907;42.676;26.348;2023-05-10T05:50:05;99402.78;;;14.31;56.75
19526;BME280;9907;42.676;26.348;2023-05-10T05:52:30;99405.25;;;14.25;56.41
19526;BME280;9907;42.676;26.348;2023-05-10T05:54:56;99409.28;;;14.38;56.15
19526;BME280;9907;42.676;26.348;2023-05-10T05:57:21;99407.53;;;14.65;56.21
19526;BME280;9907;42.676;26.348;2023-05-10T05:59:47;99415.31;;;14.93;56.41
19526;BME280;9907;42.676;26.348;2023-05-10T06:02:13;99420.28;;;14.80;55.90
19526;BME280;9907;42.676;26.348;2023-05-10T06:04:38;99415.81;;;14.71;55.72
19526;BME280;9907;42.676;26.348;2023-05-10T06:07:04;99425.34;;;14.48;55.76
19526;BME280;9907;42.676;26.348;2023-05-10T06:09:30;99418.66;;;14.87;55.71
19526;BME280;9907;42.676;26.348;2023-05-10T06:11:55;99428.25;;;15.07;54.04
19526;BME280;9907;42.676;26.348;2023-05-10T06:14:21;99415.94;;;15.31;54.26
19526;BME280;9907;42.676;26.348;2023-05-10T06:16:47;99424.38;;;15.10;54.46
19526;BME280;9907;42.676;26.348;2023-05-10T06:19:12;99428.53;;;15.04;55.35
19526;BME280;9907;42.676;26.348;2023-05-10T06:21:38;99426.28;;;14.74;55.96
19526;BME280;9907;42.676;26.348;2023-05-10T06:24:03;99431.94;;;14.71;55.61
19526;BME280;9907;42.676;26.348;2023-05-10T06:26:30;99430.75;;;15.09;54.45
19526;BME280;9907;42.676;26.348;2023-05-10T06:28:56;99430.00;;;14.99;54.51
19526;BME280;9907;42.676;26.348;2023-05-10T06:31:21;99427.56;;;14.88;54.50
19526;BME280;9907;42.676;26.348;2023-05-10T06:33:46;99436.03;;;14.57;55.34
19526;BME280;9907;42.676;26.348;2023-05-10T06:36:12;99438.16;;;15.07;55.42
19526;BME280;9907;42.676;26.348;2023-05-10T06:38:38;99435.31;;;15.34;53.88
19526;BME280;9907;42.676;26.348;2023-05-10T06:41:04;99438.00;;;15.34;54.06
19526;BME280;9907;42.676;26.348;2023-05-10T06:43:30;99435.75;;;15.22;53.59
19526;BME280;9907;42.676;26.348;2023-05-10T06:45:56;99437.78;;;14.84;54.45
19526;BME280;9907;42.676;26.348;2023-05-10T06:48:22;99443.84;;;14.51;55.41
19526;BME280;9907;42.676;26.348;2023-05-10T06:50:48;99439.03;;;14.27;56.08
19526;BME280;9907;42.676;26.348;2023-05-10T06:53:13;99443.03;;;13.96;56.30
19526;BME280;9907;42.676;26.348;2023-05-10T06:55:39;99440.91;;;13.99;56.98
19526;BME280;9907;42.676;26.348;2023-05-10T06:58:04;99436.78;;;14.68;56.70
19526;BME280;9907;42.676;26.348;2023-05-10T07:00:30;99433.06;;;15.04;54.89
19526;BME280;9907;42.676;26.348;2023-05-10T07:02:55;99428.78;;;14.76;54.41
19526;BME280;9907;42.676;26.348;2023-05-10T07:05:21;99427.50;;;14.44;55.89
19526;BME280;9907;42.676;26.348;2023-05-10T07:07:47;99436.41;;;14.80;54.96
19526;BME280;9907;42.676;26.348;2023-05-10T07:10:12;99438.38;;;14.43;54.73
19526;BME280;9907;42.676;26.348;2023-05-10T07:12:38;99448.28;;;13.88;56.81
19526;BME280;9907;42.676;26.348;2023-05-10T07:15:04;99444.22;;;14.11;56.98
19526;BME280;9907;42.676;26.348;2023-05-10T07:17:30;99451.34;;;14.02;56.77
19526;BME280;9907;42.676;26.348;2023-05-10T07:19:55;99440.16;;;14.07;57.02
19526;BME280;9907;42.676;26.348;2023-05-10T07:22:21;99446.00;;;14.47;57.17
19526;BME280;9907;42.676;26.348;2023-05-10T07:24:46;99444.41;;;14.54;56.87
19526;BME280;9907;42.676;26.348;2023-05-10T07:27:12;99446.00;;;14.83;55.82
19526;BME280;9907;42.676;26.348;2023-05-10T07:29:38;99439.00;;;14.72;54.92
19526;BME280;9907;42.676;26.348;2023-05-10T07:32:04;99437.44;;;14.34;55.38
19526;BME280;9907;42.676;26.348;2023-05-10T07:34:29;99444.09;;;14.30;55.64
19526;BME280;9907;42.676;26.348;2023-05-10T07:36:57;99443.13;;;14.04;56.25
19526;BME280;9907;42.676;26.348;2023-05-10T07:39:23;99437.94;;;14.47;55.70
19526;BME280;9907;42.676;26.348;2023-05-10T07:41:48;99438.78;;;14.48;56.36
19526;BME280;9907;42.676;26.348;2023-05-10T07:44:14;99434.25;;;14.21;56.84
19526;BME280;9907;42.676;26.348;2023-05-10T07:46:40;99443.56;;;13.99;57.93
19526;BME280;9907;42.676;26.348;2023-05-10T07:49:05;99431.63;;;13.84;58.43
19526;BME280;9907;42.676;26.348;2023-05-10T07:51:31;99442.03;;;13.70;59.12
19526;BME280;9907;42.676;26.348;2023-05-10T07:53:56;99446.59;;;13.87;58.39
19526;BME280;9907;42.676;26.348;2023-05-10T07:56:26;99443.38;;;13.83;59.46
19526;BME280;9907;42.676;26.348;2023-05-10T07:59:03;99436.56;;;13.89;60.01
19526;BME280;9907;42.676;26.348;2023-05-10T08:01:31;99429.47;;;14.60;59.55
19526;BME280;9907;42.676;26.348;2023-05-10T08:04:00;99425.81;;;14.43;57.89
19526;BME280;9907;42.676;26.348;2023-05-10T08:06:27;99436.81;;;13.95;57.69
19526;BME280;9907;42.676;26.348;2023-05-10T08:08:53;99436.47;;;13.81;57.88
19526;BME280;9907;42.676;26.348;2023-05-10T08:11:22;99438.25;;;13.90;57.75
19526;BME280;9907;42.676;26.348;2023-05-10T08:13:49;99442.00;;;14.06;57.57
19526;BME280;9907;42.676;26.348;2023-05-10T08:16:16;99433.47;;;14.11;56.94
19526;BME280;9907;42.676;26.348;2023-05-10T08:18:43;99432.81;;;14.27;56.93
19526;BME280;9907;42.676;26.348;2023-05-10T08:21:09;99430.28;;;14.25;57.07
19526;BME280;9907;42.676;26.348;2023-05-10T08:23:36;99442.69;;;14.53;56.41
19526;BME280;9907;42.676;26.348;2023-05-10T08:26:02;99437.88;;;14.92;55.63
19526;BME280;9907;42.676;26.348;2023-05-10T08:28:28;99434.25;;;15.27;56.13
19526;BME280;9907;42.676;26.348;2023-05-10T08:30:53;99438.19;;;15.15;54.32
19526;BME280;9907;42.676;26.348;2023-05-10T08:33:19;99441.88;;;14.71;55.73
19526;BME280;9907;42.676;26.348;2023-05-10T08:35:45;99442.03;;;14.51;56.60
19526;BME280;9907;42.676;26.348;2023-05-10T08:38:10;99432.09;;;14.87;56.72
19526;BME280;9907;42.676;26.348;2023-05-10T08:41:46;99431.06;;;15.06;54.77
19526;BME280;9907;42.676;26.348;2023-05-10T08:44:13;99426.56;;;15.32;55.21
19526;BME280;9907;42.676;26.348;2023-05-10T08:46:41;99438.72;;;15.36;54.09
19526;BME280;9907;42.676;26.348;2023-05-10T08:49:13;99445.53;;;15.05;53.93
19526;BME280;9907;42.676;26.348;2023-05-10T08:51:44;99436.06;;;15.19;53.91
19526;BME280;9907;42.676;26.348;2023-05-10T08:54:12;99442.50;;;15.08;54.80
19526;BME280;9907;42.676;26.348;2023-05-10T08:56:38;99432.56;;;14.83;56.01
19526;BME280;9907;42.676;26.348;2023-05-10T08:59:04;99442.16;;;14.68;55.79
19526;BME280;9907;42.676;26.348;2023-05-10T09:01:31;99445.22;;;14.37;57.17
19526;BME280;9907;42.676;26.348;2023-05-10T09:03:58;99432.47;;;14.75;55.36
19526;BME280;9907;42.676;26.348;2023-05-10T09:06:24;99435.56;;;15.23;52.01
19526;BME280;9907;42.676;26.348;2023-05-10T09:08:50;99431.75;;;15.34;51.04
19526;BME280;9907;42.676;26.348;2023-05-10T09:11:16;99430.91;;;15.51;52.34
19526;BME280;9907;42.676;26.348;2023-05-10T09:13:42;99440.94;;;15.41;53.30
19526;BME280;9907;42.676;26.348;2023-05-10T09:16:09;99451.13;;;14.94;53.74
19526;BME280;9907;42.676;26.348;2023-05-10T09:18:34;99441.69;;;14.90;53.98
19526;BME280;9907;42.676;26.348;2023-05-10T09:21:00;99447.59;;;14.93;54.37
19526;BME280;9907;42.676;26.348;2023-05-10T09:23:25;99444.25;;;14.74;55.36
19526;BME280;9907;42.676;26.348;2023-05-10T09:26:06;99439.72;;;14.92;54.93
19526;BME280;9907;42.676;26.348;2023-05-10T09:28:59;99440.06;;;14.97;54.63
19526;BME280;9907;42.676;26.348;2023-05-10T09:31:43;99437.69;;;14.94;55.35
19526;BME280;9907;42.676;26.348;2023-05-10T09:34:10;99427.16;;;15.18;54.87
19526;BME280;9907;42.676;26.348;2023-05-10T09:36:35;99417.78;;;15.30;52.30
19526;BME280;9907;42.676;26.348;2023-05-10T09:39:02;99425.38;;;15.35;52.91
19526;BME280;9907;42.676;26.348;2023-05-10T09:41:27;99424.53;;;15.08;52.76
19526;BME280;9907;42.676;26.348;2023-05-10T09:43:55;99418.03;;;15.19;53.44
19526;BME280;9907;42.676;26.348;2023-05-10T09:46:21;99419.34;;;15.15;52.22
19526;BME280;9907;42.676;26.348;2023-05-10T09:48:47;99428.94;;;14.92;52.36
19526;BME280;9907;42.676;26.348;2023-05-10T09:51:24;99425.78;;;14.79;54.08
19526;BME280;9907;42.676;26.348;2023-05-10T09:54:12;99429.84;;;14.30;55.44
19526;BME280;9907;42.676;26.348;2023-05-10T09:56:38;99423.13;;;14.43;56.09
19526;BME280;9907;42.676;26.348;2023-05-10T09:59:07;99432.16;;;14.42;55.57
19526;BME280;9907;42.676;26.348;2023-05-10T10:01:33;99420.94;;;14.29;56.95
19526;BME280;9907;42.676;26.348;2023-05-10T10:04:03;99419.03;;;14.39;56.55
19526;BME280;9907;42.676;26.348;2023-05-10T10:06:29;99416.13;;;14.50;56.86
19526;BME280;9907;42.676;26.348;2023-05-10T10:08:55;99405.34;;;14.33;57.31
19526;BME280;9907;42.676;26.348;2023-05-10T10:11:22;99401.31;;;14.46;57.11
19526;BME280;9907;42.676;26.348;2023-05-10T10:13:48;99394.84;;;14.75;56.69
19526;BME280;9907;42.676;26.348;2023-05-10T10:16:14;99403.97;;;14.64;54.40
19526;BME280;9907;42.676;26.348;2023-05-10T10:18:40;99400.16;;;14.67;54.04
19526;BME280;9907;42.676;26.348;2023-05-10T10:21:07;99393.66;;;14.95;53.24
19526;BME280;9907;42.676;26.348;2023-05-10T10:23:36;99400.00;;;15.11;52.94
19526;BME280;9907;42.676;26.348;2023-05-10T10:26:03;99395.41;;;15.04;53.64
19526;BME280;9907;42.676;26.348;2023-05-10T10:28:54;99402.44;;;14.79;54.15
19526;BME280;9907;42.676;26.348;2023-05-10T10:31:36;99396.56;;;15.01;53.75
19526;BME280;9907;42.676;26.348;2023-05-10T10:34:09;99410.66;;;14.95;54.02
19526;BME280;9907;42.676;26.348;2023-05-10T10:36:45;99401.59;;;14.79;53.55
19526;BME280;9907;42.676;26.348;2023-05-10T10:39:11;99401.00;;;14.85;53.37
19526;BME280;9907;42.676;26.348;2023-05-10T10:52:27;99399.38;;;14.92;52.21
19526;BME280;9907;42.676;26.348;2023-05-10T10:57:43;99395.31;;;15.14;54.41
19526;BME280;9907;42.676;26.348;2023-05-10T11:02:57;99391.97;;;15.20;51.97
19526;BME280;9907;42.676;26.348;2023-05-10T11:08:07;99399.72;;;14.97;53.33
19526;BME280;9907;42.676;26.348;2023-05-10T11:10:33;99400.09;;;15.02;54.05
19526;BME280;9907;42.676;26.348;2023-05-10T11:13:03;99402.75;;;14.76;53.95
19526;BME280;9907;42.676;26.348;2023-05-10T11:15:37;99390.72;;;14.63;53.69
19526;BME280;9907;42.676;26.348;2023-05-10T11:18:29;99396.41;;;14.59;53.45
19526;BME280;9907;42.676;26.348;2023-05-10T11:20:57;99395.00;;;14.38;54.10
19526;BME280;9907;42.676;26.348;2023-05-10T11:23:30;99390.78;;;14.53;53.44
19526;BME280;9907;42.676;26.348;2023-05-10T11:25:55;99393.69;;;14.77;54.20
19526;BME280;9907;42.676;26.348;2023-05-10T11:28:21;99387.28;;;14.96;53.45
19526;BME280;9907;42.676;26.348;2023-05-10T11:30:47;99392.22;;;14.83;54.15
19526;BME280;9907;42.676;26.348;2023-05-10T11:33:17;99382.19;;;14.93;53.94
19526;BME280;9907;42.676;26.348;2023-05-10T11:35:43;99387.16;;;14.80;53.81
19526;BME280;9907;42.676;26.348;2023-05-10T11:38:09;99385.78;;;14.76;54.15
19526;BME280;9907;42.676;26.348;2023-05-10T11:40:36;99382.84;;;14.87;55.25
19526;BME280;9907;42.676;26.348;2023-05-10T11:43:02;99388.84;;;14.81;54.75
19526;BME280;9907;42.676;26.348;2023-05-10T11:45:29;99384.59;;;14.78;54.79
19526;BME280;9907;42.676;26.348;2023-05-10T11:47:57;99378.69;;;14.75;55.07
19526;BME280;9907;42.676;26.348;2023-05-10T11:50:22;99367.88;;;14.84;55.40
19526;BME280;9907;42.676;26.348;2023-05-10T11:52:55;99361.13;;;15.06;54.31
19526;BME280;9907;42.676;26.348;2023-05-10T11:55:21;99363.44;;;15.01;55.46
19526;BME280;9907;42.676;26.348;2023-05-10T11:57:47;99365.81;;;15.04;54.81
19526;BME280;9907;42.676;26.348;2023-05-10T12:00:13;99369.13;;;14.98;55.07
19526;BME280;9907;42.676;26.348;2023-05-10T12:02:39;99350.09;;;14.91;56.84
19526;BME280;9907;42.676;26.348;2023-05-10T12:05:05;99361.25;;;14.96;54.74
19526;BME280;9907;42.676;26.348;2023-05-10T12:07:31;99356.06;;;15.03;54.83
19526;BME280;9907;42.676;26.348;2023-05-10T12:10:04;99363.88;;;15.14;55.27
19526;BME280;9907;42.676;26.348;2023-05-10T12:12:37;99342.94;;;15.00;55.96
19526;BME280;9907;42.676;26.348;2023-05-10T12:15:04;99369.22;;;14.63;55.50
19526;BME280;9907;42.676;26.348;2023-05-10T12:17:31;99362.28;;;14.60;56.06
19526;BME280;9907;42.676;26.348;2023-05-10T12:20:16;99365.66;;;14.62;55.80
19526;BME280;9907;42.676;26.348;2023-05-10T12:23:01;99359.44;;;14.61;55.94
19526;BME280;9907;42.676;26.348;2023-05-10T12:25:33;99355.91;;;14.61;54.32
19526;BME280;9907;42.676;26.348;2023-05-10T12:28:02;99354.50;;;14.75;54.60
19526;BME280;9907;42.676;26.348;2023-05-10T12:30:29;99343.47;;;14.86;53.86
19526;BME280;9907;42.676;26.348;2023-05-10T12:33:09;99335.28;;;15.13;53.01
19526;BME280;9907;42.676;26.348;2023-05-10T12:35:49;99341.59;;;15.04;54.28
19526;BME280;9907;42.676;26.348;2023-05-10T12:38:29;99331.16;;;15.01;54.33
19526;BME280;9907;42.676;26.348;2023-05-10T12:41:06;99340.22;;;14.74;54.84
19526;BME280;9907;42.676;26.348;2023-05-10T12:43:32;99340.50;;;14.89;55.45
19526;BME280;9907;42.676;26.348;2023-05-10T12:45:58;99328.00;;;14.80;54.79
19526;BME280;9907;42.676;26.348;2023-05-10T12:48:29;99348.13;;;14.76;55.07
19526;BME280;9907;42.676;26.348;2023-05-10T12:50:56;99334.25;;;14.63;56.06
19526;BME280;9907;42.676;26.348;2023-05-10T12:53:21;99340.00;;;14.68;56.62
19526;BME280;9907;42.676;26.348;2023-05-10T12:55:47;99329.69;;;14.81;56.32
19526;BME280;9907;42.676;26.348;2023-05-10T12:58:12;99326.47;;;14.77;56.77
19526;BME280;9907;42.676;26.348;2023-05-10T13:00:38;99323.78;;;14.77;57.44
19526;BME280;9907;42.676;26.348;2023-05-10T13:03:04;99320.91;;;14.79;56.39
19526;BME280;9907;42.676;26.348;2023-05-10T13:05:34;99310.59;;;14.66;56.89
19526;BME280;9907;42.676;26.348;2023-05-10T13:08:00;99317.06;;;14.55;56.68
19526;BME280;9907;42.676;26.348;2023-05-10T13:10:25;99311.91;;;14.62;57.12
19526;BME280;9907;42.676;26.348;2023-05-10T13:12:51;99308.25;;;14.71;56.41
19526;BME280;9907;42.676;26.348;2023-05-10T13:15:16;99316.63;;;14.68;55.96
19526;BME280;9907;42.676;26.348;2023-05-10T13:17:42;99312.75;;;14.88;56.48
19526;BME280;9907;42.676;26.348;2023-05-10T13:20:08;99320.63;;;14.82;56.10
19526;BME280;9907;42.676;26.348;2023-05-10T13:22:37;99301.50;;;14.93;57.69
19526;BME280;9907;42.676;26.348;2023-05-10T13:25:03;99307.53;;;14.87;57.35
19526;BME280;9907;42.676;26.348;2023-05-10T13:27:28;99311.53;;;14.83;57.49
19526;BME280;9907;42.676;26.348;2023-05-10T13:29:54;99301.47;;;14.85;57.40
19526;BME280;9907;42.676;26.348;2023-05-10T13:32:20;99293.09;;;14.88;56.24
19526;BME280;9907;42.676;26.348;2023-05-10T13:34:46;99306.00;;;14.84;57.12
19526;BME280;9907;42.676;26.348;2023-05-10T13:37:11;99300.03;;;14.73;56.02
19526;BME280;9907;42.676;26.348;2023-05-10T13:39:37;99303.19;;;14.68;55.42
19526;BME280;9907;42.676;26.348;2023-05-10T13:42:03;99298.25;;;14.55;55.20
19526;BME280;9907;42.676;26.348;2023-05-10T13:44:29;99288.88;;;14.59;56.46
19526;BME280;9907;42.676;26.348;2023-05-10T13:46:54;99295.97;;;14.69;58.46
19526;BME280;9907;42.676;26.348;2023-05-10T13:49:20;99299.91;;;14.56;59.68